sensor_id;sensor_type;location;lat;lon;timestamp;temperature;humidity
63445;DHT22;49573;47.682;9.170;2023-10-13T00:01:41;15.90;76.10
63445;DHT22;49573;47.682;9.170;2023-10-13T00:04:29;15.90;76.00
63445;DHT22;49573;47.682;9.170;2023-10-13T00:07:21;15.90;76.30
63445;DHT22;49573;47.682;9.170;2023-10-13T00:10:09;15.80;76.30
63445;DHT22;49573;47.682;9.170;2023-10-13T00:12:56;15.80;76.50
63445;DHT22;49573;47.682;9.170;2023-10-13T00:15:55;15.70;77.30
63445;DHT22;49573;47.682;9.170;2023-10-13T00:18:44;15.70;76.80
63445;DHT22;49573;47.682;9.170;2023-10-13T00:21:32;15.60;77.70
63445;DHT22;49573;47.682;9.170;2023-10-13T00:24:18;15.60;77.70
63445;DHT22;49573;47.682;9.170;2023-10-13T00:27:10;15.50;77.70
63445;DHT22;49573;47.682;9.170;2023-10-13T00:30:10;15.50;77.90
63445;DHT22;49573;47.682;9.170;2023-10-13T00:33:18;15.40;78.30
63445;DHT22;49573;47.682;9.170;2023-10-13T00:36:08;15.30;79.20
63445;DHT22;49573;47.682;9.170;2023-10-13T00:39:04;15.40;79.20
63445;DHT22;49573;47.682;9.170;2023-10-13T00:41:50;15.30;79.40
63445;DHT22;49573;47.682;9.170;2023-10-13T00:44:38;15.30;79.30
63445;DHT22;49573;47.682;9.170;2023-10-13T00:47:28;15.30;78.90
63445;DHT22;49573;47.682;9.170;2023-10-13T00:50:35;15.20;79.70
63445;DHT22;49573;47.682;9.170;2023-10-13T00:53:23;15.20;79.90
63445;DHT22;49573;47.682;9.170;2023-10-13T00:56:12;15.30;80.10
63445;DHT22;49573;47.682;9.170;2023-10-13T00:59:05;15.30;80.10
63445;DHT22;49573;47.682;9.170;2023-10-13T01:01:51;15.30;80.30
63445;DHT22;49573;47.682;9.170;2023-10-13T01:04:41;15.20;80.80
63445;DHT22;49573;47.682;9.170;2023-10-13T01:07:27;15.20;80.70
63445;DHT22;49573;47.682;9.170;2023-10-13T01:10:14;15.20;81.20
63445;DHT22;49573;47.682;9.170;2023-10-13T01:13:02;15.20;81.10
63445;DHT22;49573;47.682;9.170;2023-10-13T01:15:48;15.20;81.40
63445;DHT22;49573;47.682;9.170;2023-10-13T01:18:34;15.20;81.40
63445;DHT22;49573;47.682;9.170;2023-10-13T01:21:33;15.20;81.40
63445;DHT22;49573;47.682;9.170;2023-10-13T01:24:21;15.20;81.40
63445;DHT22;49573;47.682;9.170;2023-10-13T01:27:10;15.20;81.50
63445;DHT22;49573;47.682;9.170;2023-10-13T01:30:07;15.20;81.70
63445;DHT22;49573;47.682;9.170;2023-10-13T01:33:08;15.20;82.00
63445;DHT22;49573;47.682;9.170;2023-10-13T01:35:56;15.00;81.70
63445;DHT22;49573;47.682;9.170;2023-10-13T01:38:44;15.00;81.80
63445;DHT22;49573;47.682;9.170;2023-10-13T01:41:34;14.90;82.40
63445;DHT22;49573;47.682;9.170;2023-10-13T01:44:23;14.90;81.80
63445;DHT22;49573;47.682;9.170;2023-10-13T01:47:09;14.90;81.80
63445;DHT22;49573;47.682;9.170;2023-10-13T01:49:55;14.80;81.70
63445;DHT22;49573;47.682;9.170;2023-10-13T01:52:44;14.80;82.00
63445;DHT22;49573;47.682;9.170;2023-10-13T01:55:30;14.80;81.80
63445;DHT22;49573;47.682;9.170;2023-10-13T01:58:18;14.70;81.50
63445;DHT22;49573;47.682;9.170;2023-10-13T02:01:09;14.70;81.30
63445;DHT22;49573;47.682;9.170;2023-10-13T02:03:56;14.60;81.40
63445;DHT22;49573;47.682;9.170;2023-10-13T02:06:47;14.60;81.60
63445;DHT22;49573;47.682;9.170;2023-10-13T02:09:33;14.50;81.80
63445;DHT22;49573;47.682;9.170;2023-10-13T02:12:22;14.50;82.20
63445;DHT22;49573;47.682;9.170;2023-10-13T02:15:16;14.50;81.60
63445;DHT22;49573;47.682;9.170;2023-10-13T02:18:09;14.40;81.90
63445;DHT22;49573;47.682;9.170;2023-10-13T02:20:56;14.30;82.10
63445;DHT22;49573;47.682;9.170;2023-10-13T02:23:42;14.30;81.70
63445;DHT22;49573;47.682;9.170;2023-10-13T02:26:32;14.30;82.20
63445;DHT22;49573;47.682;9.170;2023-10-13T02:29:18;14.20;82.00
63445;DHT22;49573;47.682;9.170;2023-10-13T02:32:05;14.20;82.20
63445;DHT22;49573;47.682;9.170;2023-10-13T02:34:58;14.20;82.60
63445;DHT22;49573;47.682;9.170;2023-10-13T02:37:51;14.20;82.70
63445;DHT22;49573;47.682;9.170;2023-10-13T02:40:41;14.20;82.70
63445;DHT22;49573;47.682;9.170;2023-10-13T02:43:28;14.10;82.90
63445;DHT22;49573;47.682;9.170;2023-10-13T02:46:19;14.10;82.80
63445;DHT22;49573;47.682;9.170;2023-10-13T02:49:08;14.10;82.50
63445;DHT22;49573;47.682;9.170;2023-10-13T02:51:57;14.00;83.10
63445;DHT22;49573;47.682;9.170;2023-10-13T02:54:45;14.10;82.40
63445;DHT22;49573;47.682;9.170;2023-10-13T02:57:36;14.00;82.70
63445;DHT22;49573;47.682;9.170;2023-10-13T03:00:22;14.00;82.80
63445;DHT22;49573;47.682;9.170;2023-10-13T03:03:09;14.00;82.80
63445;DHT22;49573;47.682;9.170;2023-10-13T03:06:00;13.90;83.30
63445;DHT22;49573;47.682;9.170;2023-10-13T03:08:47;13.90;82.80
63445;DHT22;49573;47.682;9.170;2023-10-13T03:11:33;13.80;82.90
63445;DHT22;49573;47.682;9.170;2023-10-13T03:14:20;13.80;82.70
63445;DHT22;49573;47.682;9.170;2023-10-13T03:17:14;13.80;82.80
63445;DHT22;49573;47.682;9.170;2023-10-13T03:20:06;13.80;83.30
63445;DHT22;49573;47.682;9.170;2023-10-13T03:22:54;13.70;83.00
63445;DHT22;49573;47.682;9.170;2023-10-13T03:25:40;13.70;83.00
63445;DHT22;49573;47.682;9.170;2023-10-13T03:28:29;13.70;83.00
63445;DHT22;49573;47.682;9.170;2023-10-13T03:31:20;13.60;82.90
63445;DHT22;49573;47.682;9.170;2023-10-13T03:34:13;13.60;83.00
63445;DHT22;49573;47.682;9.170;2023-10-13T03:36:59;13.50;83.10
63445;DHT22;49573;47.682;9.170;2023-10-13T03:39:46;13.40;82.90
63445;DHT22;49573;47.682;9.170;2023-10-13T03:42:34;13.40;83.10
63445;DHT22;49573;47.682;9.170;2023-10-13T03:45:20;13.30;83.10
63445;DHT22;49573;47.682;9.170;2023-10-13T03:48:07;13.30;83.70
63445;DHT22;49573;47.682;9.170;2023-10-13T03:50:59;13.30;83.40
63445;DHT22;49573;47.682;9.170;2023-10-13T03:53:56;13.30;83.30
63445;DHT22;49573;47.682;9.170;2023-10-13T03:56:44;13.20;83.60
63445;DHT22;49573;47.682;9.170;2023-10-13T03:59:30;13.10;83.60
63445;DHT22;49573;47.682;9.170;2023-10-13T04:02:21;13.10;83.70
63445;DHT22;49573;47.682;9.170;2023-10-13T04:05:07;13.10;83.40
63445;DHT22;49573;47.682;9.170;2023-10-13T04:08:02;13.00;83.30
63445;DHT22;49573;47.682;9.170;2023-10-13T04:11:08;13.00;83.70
63445;DHT22;49573;47.682;9.170;2023-10-13T04:14:14;13.00;84.30
63445;DHT22;49573;47.682;9.170;2023-10-13T04:17:29;13.00;84.60
63445;DHT22;49573;47.682;9.170;2023-10-13T04:20:19;13.00;84.30
63445;DHT22;49573;47.682;9.170;2023-10-13T04:23:14;12.90;84.20
63445;DHT22;49573;47.682;9.170;2023-10-13T04:26:11;12.90;84.30
63445;DHT22;49573;47.682;9.170;2023-10-13T04:29:07;12.90;84.50
63445;DHT22;49573;47.682;9.170;2023-10-13T04:31:58;12.90;84.50
63445;DHT22;49573;47.682;9.170;2023-10-13T04:34:46;12.80;84.80
63445;DHT22;49573;47.682;9.170;2023-10-13T04:37:32;12.80;84.60
63445;DHT22;49573;47.682;9.170;2023-10-13T04:40:34;12.80;84.60
63445;DHT22;49573;47.682;9.170;2023-10-13T04:43:23;12.80;84.70
63445;DHT22;49573;47.682;9.170;2023-10-13T04:46:47;12.80;84.80
63445;DHT22;49573;47.682;9.170;2023-10-13T04:49:39;12.80;84.20
63445;DHT22;49573;47.682;9.170;2023-10-13T04:52:28;12.80;83.90
63445;DHT22;49573;47.682;9.170;2023-10-13T04:55:33;12.70;84.50
63445;DHT22;49573;47.682;9.170;2023-10-13T04:58:34;12.70;84.60
63445;DHT22;49573;47.682;9.170;2023-10-13T05:01:20;12.60;84.30
63445;DHT22;49573;47.682;9.170;2023-10-13T05:04:29;12.60;84.40
63445;DHT22;49573;47.682;9.170;2023-10-13T05:07:26;12.60;83.80
63445;DHT22;49573;47.682;9.170;2023-10-13T05:10:31;12.50;83.70
63445;DHT22;49573;47.682;9.170;2023-10-13T05:13:36;12.50;83.80
63445;DHT22;49573;47.682;9.170;2023-10-13T05:16:40;12.40;84.20
63445;DHT22;49573;47.682;9.170;2023-10-13T05:19:44;12.40;84.10
63445;DHT22;49573;47.682;9.170;2023-10-13T05:22:50;12.30;84.50
63445;DHT22;49573;47.682;9.170;2023-10-13T05:25:55;12.40;84.30
63445;DHT22;49573;47.682;9.170;2023-10-13T05:29:00;12.30;84.30
63445;DHT22;49573;47.682;9.170;2023-10-13T05:32:04;12.30;84.50
63445;DHT22;49573;47.682;9.170;2023-10-13T05:35:09;12.30;84.80
63445;DHT22;49573;47.682;9.170;2023-10-13T05:38:15;12.30;85.00
63445;DHT22;49573;47.682;9.170;2023-10-13T05:41:20;12.20;84.30
63445;DHT22;49573;47.682;9.170;2023-10-13T05:44:24;12.30;84.50
63445;DHT22;49573;47.682;9.170;2023-10-13T05:47:23;12.20;84.30
63445;DHT22;49573;47.682;9.170;2023-10-13T05:50:28;12.30;84.30
63445;DHT22;49573;47.682;9.170;2023-10-13T05:53:34;12.20;84.40
63445;DHT22;49573;47.682;9.170;2023-10-13T05:56:39;12.20;84.70
63445;DHT22;49573;47.682;9.170;2023-10-13T05:59:43;12.20;84.70
63445;DHT22;49573;47.682;9.170;2023-10-13T06:02:48;12.10;84.40
63445;DHT22;49573;47.682;9.170;2023-10-13T06:05:53;12.20;84.50
63445;DHT22;49573;47.682;9.170;2023-10-13T06:08:59;12.20;84.60
63445;DHT22;49573;47.682;9.170;2023-10-13T06:12:03;12.20;84.50
63445;DHT22;49573;47.682;9.170;2023-10-13T06:15:08;12.20;84.60
63445;DHT22;49573;47.682;9.170;2023-10-13T06:18:13;12.20;84.80
63445;DHT22;49573;47.682;9.170;2023-10-13T06:21:19;12.30;85.10
63445;DHT22;49573;47.682;9.170;2023-10-13T06:24:25;12.30;85.00
63445;DHT22;49573;47.682;9.170;2023-10-13T06:27:30;12.30;84.60
63445;DHT22;49573;47.682;9.170;2023-10-13T06:30:34;12.30;84.80
63445;DHT22;49573;47.682;9.170;2023-10-13T06:33:20;12.40;84.90
63445;DHT22;49573;47.682;9.170;2023-10-13T06:36:07;12.40;84.70
63445;DHT22;49573;47.682;9.170;2023-10-13T06:38:56;12.50;84.70
63445;DHT22;49573;47.682;9.170;2023-10-13T06:42:04;12.50;85.30
63445;DHT22;49573;47.682;9.170;2023-10-13T06:44:50;12.70;85.10
63445;DHT22;49573;47.682;9.170;2023-10-13T06:47:37;12.70;84.90
63445;DHT22;49573;47.682;9.170;2023-10-13T06:50:29;12.80;84.50
63445;DHT22;49573;47.682;9.170;2023-10-13T06:53:15;12.90;84.40
63445;DHT22;49573;47.682;9.170;2023-10-13T06:56:02;13.00;84.60
63445;DHT22;49573;47.682;9.170;2023-10-13T06:58:50;13.10;84.40
63445;DHT22;49573;47.682;9.170;2023-10-13T07:01:36;13.20;84.40
63445;DHT22;49573;47.682;9.170;2023-10-13T07:04:26;13.30;83.90
63445;DHT22;49573;47.682;9.170;2023-10-13T07:07:12;13.40;84.40
63445;DHT22;49573;47.682;9.170;2023-10-13T07:10:01;13.50;84.70
63445;DHT22;49573;47.682;9.170;2023-10-13T07:12:47;13.70;84.50
63445;DHT22;49573;47.682;9.170;2023-10-13T07:15:37;13.80;84.80
63445;DHT22;49573;47.682;9.170;2023-10-13T07:18:30;13.90;85.00
63445;DHT22;49573;47.682;9.170;2023-10-13T07:21:22;14.10;84.50
63445;DHT22;49573;47.682;9.170;2023-10-13T07:24:16;14.30;84.10
63445;DHT22;49573;47.682;9.170;2023-10-13T07:27:03;14.50;83.90
63445;DHT22;49573;47.682;9.170;2023-10-13T07:29:51;14.70;83.50
63445;DHT22;49573;47.682;9.170;2023-10-13T07:33:12;14.80;83.50
63445;DHT22;49573;47.682;9.170;2023-10-13T07:36:04;15.00;82.80
63445;DHT22;49573;47.682;9.170;2023-10-13T07:39:01;15.20;82.50
63445;DHT22;49573;47.682;9.170;2023-10-13T07:42:06;15.30;82.10
63445;DHT22;49573;47.682;9.170;2023-10-13T07:45:01;15.40;81.90
63445;DHT22;49573;47.682;9.170;2023-10-13T07:47:50;15.70;81.80
63445;DHT22;49573;47.682;9.170;2023-10-13T07:50:38;15.80;81.00
63445;DHT22;49573;47.682;9.170;2023-10-13T07:53:24;15.90;80.10
63445;DHT22;49573;47.682;9.170;2023-10-13T07:56:10;16.10;80.20
63445;DHT22;49573;47.682;9.170;2023-10-13T07:59:00;16.10;79.30
63445;DHT22;49573;47.682;9.170;2023-10-13T08:01:52;16.30;79.50
63445;DHT22;49573;47.682;9.170;2023-10-13T08:04:58;16.50;79.00
63445;DHT22;49573;47.682;9.170;2023-10-13T08:07:46;16.80;78.40
63445;DHT22;49573;47.682;9.170;2023-10-13T08:10:37;16.80;77.60
63445;DHT22;49573;47.682;9.170;2023-10-13T08:13:35;16.90;77.10
63445;DHT22;49573;47.682;9.170;2023-10-13T08:16:26;17.00;77.20
63445;DHT22;49573;47.682;9.170;2023-10-13T08:19:31;17.20;76.90
63445;DHT22;49573;47.682;9.170;2023-10-13T08:22:25;17.30;76.00
63445;DHT22;49573;47.682;9.170;2023-10-13T08:25:13;17.30;75.40
63445;DHT22;49573;47.682;9.170;2023-10-13T08:28:28;17.30;75.40
63445;DHT22;49573;47.682;9.170;2023-10-13T08:31:23;17.50;75.20
63445;DHT22;49573;47.682;9.170;2023-10-13T08:34:11;17.90;73.90
63445;DHT22;49573;47.682;9.170;2023-10-13T08:37:02;18.10;73.10
63445;DHT22;49573;47.682;9.170;2023-10-13T08:40:06;18.20;71.80
63445;DHT22;49573;47.682;9.170;2023-10-13T08:42:54;18.40;72.30
63445;DHT22;49573;47.682;9.170;2023-10-13T08:45:52;18.50;71.30
63445;DHT22;49573;47.682;9.170;2023-10-13T08:48:41;18.80;71.10
63445;DHT22;49573;47.682;9.170;2023-10-13T08:51:39;18.90;71.30
63445;DHT22;49573;47.682;9.170;2023-10-13T08:54:36;19.10;67.00
63445;DHT22;49573;47.682;9.170;2023-10-13T08:57:47;19.30;67.70
63445;DHT22;49573;47.682;9.170;2023-10-13T09:00:37;19.30;63.00
63445;DHT22;49573;47.682;9.170;2023-10-13T09:03:41;19.50;62.10
63445;DHT22;49573;47.682;9.170;2023-10-13T09:06:28;19.70;61.80
63445;DHT22;49573;47.682;9.170;2023-10-13T09:09:15;19.70;62.40
63445;DHT22;49573;47.682;9.170;2023-10-13T09:12:14;19.80;60.90
63445;DHT22;49573;47.682;9.170;2023-10-13T09:15:02;20.00;61.20
63445;DHT22;49573;47.682;9.170;2023-10-13T09:18:01;20.20;60.70
63445;DHT22;49573;47.682;9.170;2023-10-13T09:21:00;20.20;59.80
63445;DHT22;49573;47.682;9.170;2023-10-13T09:24:10;20.60;61.20
63445;DHT22;49573;47.682;9.170;2023-10-13T09:27:09;20.80;59.20
63445;DHT22;49573;47.682;9.170;2023-10-13T09:30:00;21.10;57.00
63445;DHT22;49573;47.682;9.170;2023-10-13T09:33:01;21.20;55.80
63445;DHT22;49573;47.682;9.170;2023-10-13T09:35:48;21.30;57.10
63445;DHT22;49573;47.682;9.170;2023-10-13T09:38:37;21.60;56.80
63445;DHT22;49573;47.682;9.170;2023-10-13T09:41:27;21.80;57.30
63445;DHT22;49573;47.682;9.170;2023-10-13T09:44:13;22.10;57.80
63445;DHT22;49573;47.682;9.170;2023-10-13T09:47:01;22.30;58.70
63445;DHT22;49573;47.682;9.170;2023-10-13T09:49:59;22.50;59.30
63445;DHT22;49573;47.682;9.170;2023-10-13T09:52:52;22.70;60.40
63445;DHT22;49573;47.682;9.170;2023-10-13T09:55:43;22.80;58.10
63445;DHT22;49573;47.682;9.170;2023-10-13T09:58:31;23.00;57.90
63445;DHT22;49573;47.682;9.170;2023-10-13T10:01:24;23.10;56.30
63445;DHT22;49573;47.682;9.170;2023-10-13T10:04:18;23.30;56.70
63445;DHT22;49573;47.682;9.170;2023-10-13T10:07:06;23.20;54.50
63445;DHT22;49573;47.682;9.170;2023-10-13T10:09:56;23.50;55.50
63445;DHT22;49573;47.682;9.170;2023-10-13T10:12:47;23.60;56.10
63445;DHT22;49573;47.682;9.170;2023-10-13T10:15:36;23.70;55.20
63445;DHT22;49573;47.682;9.170;2023-10-13T10:18:32;23.80;54.00
63445;DHT22;49573;47.682;9.170;2023-10-13T10:21:18;24.00;55.00
63445;DHT22;49573;47.682;9.170;2023-10-13T10:24:21;23.90;52.10
63445;DHT22;49573;47.682;9.170;2023-10-13T10:27:24;24.10;51.60
63445;DHT22;49573;47.682;9.170;2023-10-13T10:30:11;24.60;51.20
63445;DHT22;49573;47.682;9.170;2023-10-13T10:32:59;24.60;50.50
63445;DHT22;49573;47.682;9.170;2023-10-13T10:35:46;24.80;50.20
63445;DHT22;49573;47.682;9.170;2023-10-13T10:38:33;25.10;50.50
63445;DHT22;49573;47.682;9.170;2023-10-13T10:41:29;25.20;50.50
63445;DHT22;49573;47.682;9.170;2023-10-13T10:44:40;25.30;47.80
63445;DHT22;49573;47.682;9.170;2023-10-13T10:47:28;25.10;48.20
63445;DHT22;49573;47.682;9.170;2023-10-13T10:50:25;25.10;48.80
63445;DHT22;49573;47.682;9.170;2023-10-13T10:53:20;25.40;49.50
63445;DHT22;49573;47.682;9.170;2023-10-13T10:56:09;26.10;48.80
63445;DHT22;49573;47.682;9.170;2023-10-13T10:59:07;26.50;47.80
63445;DHT22;49573;47.682;9.170;2023-10-13T11:02:04;26.50;45.20
63445;DHT22;49573;47.682;9.170;2023-10-13T11:04:52;26.70;46.40
63445;DHT22;49573;47.682;9.170;2023-10-13T11:07:45;26.40;46.30
63445;DHT22;49573;47.682;9.170;2023-10-13T11:10:46;26.90;46.60
63445;DHT22;49573;47.682;9.170;2023-10-13T11:13:41;27.40;46.70
63445;DHT22;49573;47.682;9.170;2023-10-13T11:16:35;27.50;44.90
63445;DHT22;49573;47.682;9.170;2023-10-13T11:19:33;27.50;44.70
63445;DHT22;49573;47.682;9.170;2023-10-13T11:22:20;27.30;44.60
63445;DHT22;49573;47.682;9.170;2023-10-13T11:25:23;27.60;44.20
63445;DHT22;49573;47.682;9.170;2023-10-13T11:28:18;27.60;44.50
63445;DHT22;49573;47.682;9.170;2023-10-13T11:31:14;27.50;45.30
63445;DHT22;49573;47.682;9.170;2023-10-13T11:34:06;28.20;44.70
63445;DHT22;49573;47.682;9.170;2023-10-13T11:36:52;28.10;43.20
63445;DHT22;49573;47.682;9.170;2023-10-13T11:39:38;28.00;43.50
63445;DHT22;49573;47.682;9.170;2023-10-13T11:42:28;28.60;42.80
63445;DHT22;49573;47.682;9.170;2023-10-13T11:45:14;28.70;41.80
63445;DHT22;49573;47.682;9.170;2023-10-13T11:48:15;29.10;42.60
63445;DHT22;49573;47.682;9.170;2023-10-13T11:51:05;29.00;41.50
63445;DHT22;49573;47.682;9.170;2023-10-13T11:53:54;29.40;40.40
63445;DHT22;49573;47.682;9.170;2023-10-13T11:56:41;29.60;39.50
63445;DHT22;49573;47.682;9.170;2023-10-13T11:59:28;29.40;40.00
63445;DHT22;49573;47.682;9.170;2023-10-13T12:02:14;30.20;40.40
63445;DHT22;49573;47.682;9.170;2023-10-13T12:05:12;30.40;39.40
63445;DHT22;49573;47.682;9.170;2023-10-13T12:08:00;31.20;38.40
63445;DHT22;49573;47.682;9.170;2023-10-13T12:10:53;31.70;37.90
63445;DHT22;49573;47.682;9.170;2023-10-13T12:14:08;32.60;38.00
63445;DHT22;49573;47.682;9.170;2023-10-13T12:17:17;32.70;35.20
63445;DHT22;49573;47.682;9.170;2023-10-13T12:20:11;32.60;36.40
63445;DHT22;49573;47.682;9.170;2023-10-13T12:23:05;33.70;34.00
63445;DHT22;49573;47.682;9.170;2023-10-13T12:26:02;33.70;33.10
63445;DHT22;49573;47.682;9.170;2023-10-13T12:29:04;34.30;33.00
63445;DHT22;49573;47.682;9.170;2023-10-13T12:32:03;36.20;32.00
63445;DHT22;49573;47.682;9.170;2023-10-13T12:34:58;36.50;30.00
63445;DHT22;49573;47.682;9.170;2023-10-13T12:37:49;36.20;30.80
63445;DHT22;49573;47.682;9.170;2023-10-13T12:40:37;37.10;29.90
63445;DHT22;49573;47.682;9.170;2023-10-13T12:43:41;37.60;30.50
63445;DHT22;49573;47.682;9.170;2023-10-13T12:46:46;37.80;28.00
63445;DHT22;49573;47.682;9.170;2023-10-13T12:49:50;37.30;28.00
63445;DHT22;49573;47.682;9.170;2023-10-13T12:52:43;38.00;27.80
63445;DHT22;49573;47.682;9.170;2023-10-13T12:55:31;39.00;28.20
63445;DHT22;49573;47.682;9.170;2023-10-13T12:58:18;39.20;26.80
63445;DHT22;49573;47.682;9.170;2023-10-13T13:01:12;38.70;26.40
63445;DHT22;49573;47.682;9.170;2023-10-13T13:03:59;39.40;26.60
63445;DHT22;49573;47.682;9.170;2023-10-13T13:06:49;39.80;26.40
63445;DHT22;49573;47.682;9.170;2023-10-13T13:09:36;41.10;25.90
63445;DHT22;49573;47.682;9.170;2023-10-13T13:12:23;41.50;24.30
63445;DHT22;49573;47.682;9.170;2023-10-13T13:15:11;41.00;25.40
63445;DHT22;49573;47.682;9.170;2023-10-13T13:17:58;42.30;24.60
63445;DHT22;49573;47.682;9.170;2023-10-13T13:20:44;42.40;23.60
63445;DHT22;49573;47.682;9.170;2023-10-13T13:23:39;42.80;23.90
63445;DHT22;49573;47.682;9.170;2023-10-13T13:26:25;42.90;23.50
63445;DHT22;49573;47.682;9.170;2023-10-13T13:29:11;43.30;23.80
63445;DHT22;49573;47.682;9.170;2023-10-13T13:31:59;42.50;23.10
63445;DHT22;49573;47.682;9.170;2023-10-13T13:34:46;42.70;22.10
63445;DHT22;49573;47.682;9.170;2023-10-13T13:37:40;42.50;23.30
63445;DHT22;49573;47.682;9.170;2023-10-13T13:40:28;43.00;23.10
63445;DHT22;49573;47.682;9.170;2023-10-13T13:43:20;43.20;23.10
63445;DHT22;49573;47.682;9.170;2023-10-13T13:46:24;43.10;22.00
63445;DHT22;49573;47.682;9.170;2023-10-13T13:49:14;42.60;22.00
63445;DHT22;49573;47.682;9.170;2023-10-13T13:52:14;42.80;21.90
63445;DHT22;49573;47.682;9.170;2023-10-13T13:55:07;43.70;21.30
63445;DHT22;49573;47.682;9.170;2023-10-13T13:57:55;44.10;21.50
63445;DHT22;49573;47.682;9.170;2023-10-13T14:00:41;44.80;21.40
63445;DHT22;49573;47.682;9.170;2023-10-13T14:03:36;44.10;21.50
63445;DHT22;49573;47.682;9.170;2023-10-13T14:06:24;45.00;21.50
63445;DHT22;49573;47.682;9.170;2023-10-13T14:09:12;45.20;20.00
63445;DHT22;49573;47.682;9.170;2023-10-13T14:12:03;43.20;20.80
63445;DHT22;49573;47.682;9.170;2023-10-13T14:15:08;43.60;20.70
63445;DHT22;49573;47.682;9.170;2023-10-13T14:18:06;43.10;20.10
63445;DHT22;49573;47.682;9.170;2023-10-13T14:20:53;43.20;20.10
63445;DHT22;49573;47.682;9.170;2023-10-13T14:23:43;42.30;19.80
63445;DHT22;49573;47.682;9.170;2023-10-13T14:26:30;42.40;19.70
63445;DHT22;49573;47.682;9.170;2023-10-13T14:29:18;42.20;20.20
63445;DHT22;49573;47.682;9.170;2023-10-13T14:32:04;41.80;20.00
63445;DHT22;49573;47.682;9.170;2023-10-13T14:34:50;43.00;20.20
63445;DHT22;49573;47.682;9.170;2023-10-13T14:37:42;42.80;19.60
63445;DHT22;49573;47.682;9.170;2023-10-13T14:40:30;42.60;19.40
63445;DHT22;49573;47.682;9.170;2023-10-13T14:43:16;41.10;19.40
63445;DHT22;49573;47.682;9.170;2023-10-13T14:46:02;40.50;19.30
63445;DHT22;49573;47.682;9.170;2023-10-13T14:48:53;40.40;17.90
63445;DHT22;49573;47.682;9.170;2023-10-13T14:51:39;40.30;19.10
63445;DHT22;49573;47.682;9.170;2023-10-13T14:54:25;40.00;18.70
63445;DHT22;49573;47.682;9.170;2023-10-13T14:57:19;39.60;18.80
63445;DHT22;49573;47.682;9.170;2023-10-13T15:00:11;38.80;19.80
63445;DHT22;49573;47.682;9.170;2023-10-13T15:02:59;37.70;20.30
63445;DHT22;49573;47.682;9.170;2023-10-13T15:05:48;37.00;20.40
63445;DHT22;49573;47.682;9.170;2023-10-13T15:08:34;36.20;21.80
63445;DHT22;49573;47.682;9.170;2023-10-13T15:11:21;36.70;21.70
63445;DHT22;49573;47.682;9.170;2023-10-13T15:14:08;36.90;21.50
63445;DHT22;49573;47.682;9.170;2023-10-13T15:16:54;36.40;22.40
63445;DHT22;49573;47.682;9.170;2023-10-13T15:19:46;35.80;21.80
63445;DHT22;49573;47.682;9.170;2023-10-13T15:22:32;35.10;22.50
63445;DHT22;49573;47.682;9.170;2023-10-13T15:25:21;34.00;23.10
63445;DHT22;49573;47.682;9.170;2023-10-13T15:28:07;34.20;23.40
63445;DHT22;49573;47.682;9.170;2023-10-13T15:30:57;34.60;23.40
63445;DHT22;49573;47.682;9.170;2023-10-13T15:33:55;34.80;22.80
63445;DHT22;49573;47.682;9.170;2023-10-13T15:36:42;33.20;24.60
63445;DHT22;49573;47.682;9.170;2023-10-13T15:39:31;34.10;22.70
63445;DHT22;49573;47.682;9.170;2023-10-13T15:42:17;32.90;24.50
63445;DHT22;49573;47.682;9.170;2023-10-13T15:45:07;32.80;23.70
63445;DHT22;49573;47.682;9.170;2023-10-13T15:48:04;33.50;23.90
63445;DHT22;49573;47.682;9.170;2023-10-13T15:50:50;33.40;24.10
63445;DHT22;49573;47.682;9.170;2023-10-13T15:53:36;32.90;24.20
63445;DHT22;49573;47.682;9.170;2023-10-13T15:56:22;33.10;24.70
63445;DHT22;49573;47.682;9.170;2023-10-13T15:59:09;33.30;24.60
63445;DHT22;49573;47.682;9.170;2023-10-13T16:01:55;33.30;24.10
63445;DHT22;49573;47.682;9.170;2023-10-13T16:04:44;33.20;24.40
63445;DHT22;49573;47.682;9.170;2023-10-13T16:07:30;32.80;24.70
63445;DHT22;49573;47.682;9.170;2023-10-13T16:10:21;32.30;24.70
63445;DHT22;49573;47.682;9.170;2023-10-13T16:13:08;32.10;24.80
63445;DHT22;49573;47.682;9.170;2023-10-13T16:16:01;31.30;25.00
63445;DHT22;49573;47.682;9.170;2023-10-13T16:18:47;30.60;26.10
63445;DHT22;49573;47.682;9.170;2023-10-13T16:21:35;29.80;27.00
63445;DHT22;49573;47.682;9.170;2023-10-13T16:24:25;29.10;27.80
63445;DHT22;49573;47.682;9.170;2023-10-13T16:27:11;28.10;28.80
63445;DHT22;49573;47.682;9.170;2023-10-13T16:29:59;27.70;29.40
63445;DHT22;49573;47.682;9.170;2023-10-13T16:32:46;27.20;30.00
63445;DHT22;49573;47.682;9.170;2023-10-13T16:35:32;26.70;30.80
63445;DHT22;49573;47.682;9.170;2023-10-13T16:38:20;26.40;30.80
63445;DHT22;49573;47.682;9.170;2023-10-13T16:41:10;26.00;31.40
63445;DHT22;49573;47.682;9.170;2023-10-13T16:43:58;25.60;32.10
63445;DHT22;49573;47.682;9.170;2023-10-13T16:46:46;25.20;32.30
63445;DHT22;49573;47.682;9.170;2023-10-13T16:49:35;25.20;32.50
63445;DHT22;49573;47.682;9.170;2023-10-13T16:52:21;24.80;33.00
63445;DHT22;49573;47.682;9.170;2023-10-13T16:55:10;24.60;33.40
63445;DHT22;49573;47.682;9.170;2023-10-13T16:57:57;24.50;33.90
63445;DHT22;49573;47.682;9.170;2023-10-13T17:00:43;24.30;34.10
63445;DHT22;49573;47.682;9.170;2023-10-13T17:03:30;24.30;34.20
63445;DHT22;49573;47.682;9.170;2023-10-13T17:06:17;24.20;34.60
63445;DHT22;49573;47.682;9.170;2023-10-13T17:09:03;23.90;35.30
63445;DHT22;49573;47.682;9.170;2023-10-13T17:11:51;23.80;35.30
63445;DHT22;49573;47.682;9.170;2023-10-13T17:14:37;23.70;35.10
63445;DHT22;49573;47.682;9.170;2023-10-13T17:17:26;23.70;35.30
63445;DHT22;49573;47.682;9.170;2023-10-13T17:20:13;23.60;35.50
63445;DHT22;49573;47.682;9.170;2023-10-13T17:22:59;23.40;35.80
63445;DHT22;49573;47.682;9.170;2023-10-13T17:25:45;23.30;35.60
63445;DHT22;49573;47.682;9.170;2023-10-13T17:28:32;23.20;35.90
63445;DHT22;49573;47.682;9.170;2023-10-13T17:31:18;23.20;36.50
63445;DHT22;49573;47.682;9.170;2023-10-13T17:34:04;23.10;36.50
63445;DHT22;49573;47.682;9.170;2023-10-13T17:36:51;23.00;36.90
63445;DHT22;49573;47.682;9.170;2023-10-13T17:39:38;23.00;36.30
63445;DHT22;49573;47.682;9.170;2023-10-13T17:42:25;22.90;36.50
63445;DHT22;49573;47.682;9.170;2023-10-13T17:45:13;22.80;37.30
63445;DHT22;49573;47.682;9.170;2023-10-13T17:47:59;22.80;37.30
63445;DHT22;49573;47.682;9.170;2023-10-13T17:50:46;22.70;38.20
63445;DHT22;49573;47.682;9.170;2023-10-13T17:53:33;22.50;37.60
63445;DHT22;49573;47.682;9.170;2023-10-13T17:56:23;22.30;38.20
63445;DHT22;49573;47.682;9.170;2023-10-13T17:59:09;22.20;38.50
63445;DHT22;49573;47.682;9.170;2023-10-13T18:01:59;22.20;38.30
63445;DHT22;49573;47.682;9.170;2023-10-13T18:04:46;22.10;38.70
63445;DHT22;49573;47.682;9.170;2023-10-13T18:07:32;22.00;38.70